aviador You're here:

KUNO Decoded Metar

WEST PLAINS in MO, USA
Report Time2018-01-23 03:53:00
UTC Time2018-01-23 04:01:41
Flight Rules vfr VFR
Wind280° at 17 Gusting to 26 kt
W.Decomp.*RWY 36: 2.4 kt HW 16.8 kt LCW
W.Rank280° ranks 28
Current wind is above 280° avg. (6.9)
Visibility9999 m
Phenomena:N/A
Clouds:Overcast 034 Hf
Expected CloudBase > 2,400 ft AGL from Temp-Dew spread
Ceiling3,400 ft
Temp03°C (ISA -10)
Dew Point-3°C (65% RH)
AAT-5.5°C
QNH1007 hPa
Density Alt338 ft
Elevation1,220 ft
Report Wrong Elevation
Raw Report
KUNO 230353Z AUTO 28017G26KT 10SM OVC034 03/M03 A2975 RMK AO2 PK
WND 28034/0303 SLP076 T00331028=

Extra information for KUNO:More info

Metar Taf Metar & Taf Last 4 Metars F.Rules Stats Wind Profile Meteogram Temp Stats Airport Information Weather charts Add Link Nearby VenuesMetar ALERT Operation Metar Decoded Social comments

AIRNAV info for KUNO